createdAt,value
2022-12-26T00:01:36.319Z,92.83
2022-12-26T00:04:04.617Z,90.50
2022-12-26T00:06:32.790Z,85.83
2022-12-26T00:09:02.543Z,82.13
2022-12-26T00:11:30.301Z,81.87
2022-12-26T00:14:00.422Z,84.60
2022-12-26T00:16:28.570Z,90.03
2022-12-26T00:18:56.366Z,86.33
2022-12-26T00:21:27.306Z,95.30
2022-12-26T00:23:57.072Z,89.63
2022-12-26T00:26:27.817Z,91.07
2022-12-26T00:28:56.141Z,92.33
2022-12-26T00:31:29.781Z,78.73
2022-12-26T00:33:57.174Z,91.53
2022-12-26T00:36:29.690Z,86.97
2022-12-26T00:38:58.374Z,87.10
2022-12-26T00:41:26.311Z,82.73
2022-12-26T00:43:54.100Z,90.07
2022-12-26T00:46:27.277Z,89.03
2022-12-26T00:48:56.401Z,104.60
2022-12-26T00:51:24.748Z,103.17
2022-12-26T00:53:52.076Z,95.07
2022-12-26T00:56:20.621Z,85.17
2022-12-26T00:58:47.956Z,86.17
2022-12-26T01:01:19.062Z,83.43
2022-12-26T01:03:48.205Z,89.20
2022-12-26T01:06:16.846Z,94.00
2022-12-26T01:08:44.178Z,94.40
2022-12-26T01:11:13.591Z,88.27
2022-12-26T01:13:40.844Z,84.73
2022-12-26T01:16:08.900Z,91.93
2022-12-26T01:18:36.375Z,91.20
2022-12-26T01:21:10.438Z,85.30
2022-12-26T01:23:37.870Z,92.87
2022-12-26T01:26:16.909Z,97.87
2022-12-26T01:28:51.406Z,81.10
2022-12-26T01:31:20.619Z,74.63
2022-12-26T01:33:49.476Z,82.93
2022-12-26T01:36:17.653Z,76.13
2022-12-26T01:38:45.280Z,88.70
2022-12-26T01:41:22.381Z,89.53
2022-12-26T01:44:04.156Z,96.97
2022-12-26T01:46:35.167Z,90.57
2022-12-26T01:49:19.574Z,87.30
2022-12-26T01:51:53.445Z,77.33
2022-12-26T01:54:38.362Z,80.60
2022-12-26T01:57:47.854Z,95.20
2022-12-26T02:00:15.987Z,74.70
2022-12-26T02:03:02.909Z,77.77
2022-12-26T02:05:34.490Z,78.90
2022-12-26T02:08:06.032Z,83.47
2022-12-26T02:10:44.281Z,69.60
2022-12-26T02:13:13.946Z,79.10
2022-12-26T02:15:42.470Z,87.77
2022-12-26T02:18:10.013Z,93.60
2022-12-26T02:21:00.285Z,90.27
2022-12-26T02:23:58.235Z,77.40
2022-12-26T02:26:46.862Z,101.13
2022-12-26T02:29:32.853Z,91.77
2022-12-26T02:32:37.335Z,89.27
2022-12-26T02:35:10.829Z,102.30
2022-12-26T02:38:04.963Z,72.00
2022-12-26T02:40:42.819Z,93.00
2022-12-26T02:43:23.688Z,82.97
2022-12-26T02:46:39.730Z,82.33
2022-12-26T02:49:29.946Z,93.13
2022-12-26T02:52:37.318Z,81.47
2022-12-26T02:55:30.571Z,84.27
2022-12-26T02:58:40.316Z,101.83
2022-12-26T03:01:45.246Z,101.60
2022-12-26T03:04:34.825Z,111.17
2022-12-26T03:07:23.864Z,76.40
2022-12-26T03:10:11.726Z,82.23
2022-12-26T03:13:12.193Z,73.70
2022-12-26T03:16:17.937Z,66.73
2022-12-26T03:18:58.594Z,77.90
2022-12-26T03:21:35.767Z,72.43
2022-12-26T03:24:03.113Z,67.60
2022-12-26T03:26:41.204Z,74.00
2022-12-26T03:29:34.134Z,81.23
2022-12-26T03:32:04.078Z,85.60
2022-12-26T03:34:31.371Z,114.27
2022-12-26T03:37:04.825Z,86.07
2022-12-26T03:40:15.888Z,113.33
2022-12-26T03:43:02.117Z,102.20
2022-12-26T03:46:27.181Z,103.20
2022-12-26T03:49:15.831Z,105.17
2022-12-26T03:52:08.531Z,110.37
2022-12-26T03:54:59.443Z,126.80
2022-12-26T03:57:55.015Z,117.43
2022-12-26T04:00:41.159Z,98.03
2022-12-26T04:03:31.693Z,82.20
2022-12-26T04:06:21.414Z,110.57
2022-12-26T04:09:17.321Z,107.53
2022-12-26T04:12:04.650Z,94.43
2022-12-26T04:15:01.137Z,127.90
2022-12-26T04:18:14.522Z,102.93
2022-12-26T04:20:47.335Z,94.07
2022-12-26T04:23:41.537Z,104.00
2022-12-26T04:26:40.250Z,106.27
2022-12-26T04:29:26.653Z,128.57
2022-12-26T04:32:29.740Z,95.23
2022-12-26T04:35:29.836Z,117.27
2022-12-26T04:38:17.065Z,151.70
2022-12-26T04:41:09.393Z,119.17
2022-12-26T04:43:56.665Z,123.10
2022-12-26T04:46:26.018Z,115.00
2022-12-26T04:49:13.596Z,153.80
2022-12-26T04:51:41.193Z,131.23
2022-12-26T04:54:09.039Z,142.17
2022-12-26T04:56:36.493Z,145.43
2022-12-26T04:59:04.121Z,148.07
2022-12-26T05:01:50.178Z,140.77
2022-12-26T05:04:37.180Z,129.70
2022-12-26T05:07:25.477Z,127.27
2022-12-26T05:09:54.107Z,164.07
2022-12-26T05:12:22.119Z,145.20
2022-12-26T05:14:49.427Z,123.27
2022-12-26T05:17:35.920Z,115.57
2022-12-26T05:20:22.219Z,118.17
2022-12-26T05:23:08.038Z,114.87
2022-12-26T05:25:55.859Z,97.40
2022-12-26T05:28:41.918Z,107.40
2022-12-26T05:31:15.011Z,97.50
2022-12-26T05:34:03.250Z,116.67
2022-12-26T05:36:35.034Z,113.80
2022-12-26T05:39:03.467Z,93.03
2022-12-26T05:41:30.736Z,97.50
2022-12-26T05:43:58.468Z,84.17
2022-12-26T05:46:25.936Z,89.60
2022-12-26T05:48:53.487Z,85.10
2022-12-26T05:51:20.818Z,83.27
2022-12-26T05:53:48.630Z,90.33
2022-12-26T05:56:17.222Z,89.00
2022-12-26T05:58:45.692Z,78.77
2022-12-26T06:01:16.054Z,82.27
2022-12-26T06:03:47.701Z,83.90
2022-12-26T06:06:15.804Z,74.10
2022-12-26T06:08:43.776Z,78.37
2022-12-26T06:11:13.237Z,84.57
2022-12-26T06:13:41.862Z,73.40
2022-12-26T06:16:11.931Z,71.97
2022-12-26T06:18:40.847Z,72.80
2022-12-26T06:21:12.387Z,74.87
2022-12-26T06:23:41.014Z,72.27
2022-12-26T06:26:10.456Z,66.70
2022-12-26T06:28:38.897Z,78.57
2022-12-26T06:31:09.427Z,60.87
2022-12-26T06:33:37.819Z,73.50
2022-12-26T06:36:11.081Z,66.87
2022-12-26T06:38:39.128Z,70.27
2022-12-26T06:41:08.255Z,75.37
2022-12-26T06:43:36.277Z,66.07
2022-12-26T06:46:05.763Z,65.60
2022-12-26T06:48:39.960Z,62.23
2022-12-26T06:51:11.509Z,70.07
2022-12-26T06:53:39.579Z,66.60
2022-12-26T06:56:11.173Z,61.67
2022-12-26T06:58:39.602Z,67.10
2022-12-26T07:01:13.572Z,58.40
2022-12-26T07:03:50.481Z,67.17
2022-12-26T07:06:27.365Z,60.00
2022-12-26T07:08:58.199Z,59.30
2022-12-26T07:11:29.692Z,51.73
2022-12-26T07:13:57.899Z,58.20
2022-12-26T07:16:25.714Z,52.63
2022-12-26T07:18:57.975Z,53.53
2022-12-26T07:21:26.606Z,54.47
2022-12-26T07:23:55.638Z,56.37
2022-12-26T07:26:24.422Z,58.13
2022-12-26T07:28:56.686Z,55.00
2022-12-26T07:31:25.483Z,60.00
2022-12-26T07:33:55.176Z,61.57
2022-12-26T07:36:25.533Z,57.80
2022-12-26T07:38:53.064Z,59.33
2022-12-26T07:41:39.018Z,56.97
2022-12-26T07:44:06.891Z,52.03
2022-12-26T07:46:34.423Z,43.73
2022-12-26T07:49:02.301Z,51.50
2022-12-26T07:51:30.100Z,45.70
2022-12-26T07:53:57.709Z,50.13
2022-12-26T07:56:25.306Z,49.83
2022-12-26T07:58:53.224Z,43.33
2022-12-26T08:01:20.950Z,51.70
2022-12-26T08:03:50.572Z,45.00
2022-12-26T08:06:19.323Z,45.83
2022-12-26T08:08:51.160Z,45.40
2022-12-26T08:11:22.319Z,47.30
2022-12-26T08:13:50.831Z,44.77
2022-12-26T08:16:19.576Z,44.43
2022-12-26T08:18:47.980Z,40.60
2022-12-26T08:21:15.617Z,46.40
2022-12-26T08:23:43.483Z,34.57
2022-12-26T08:26:13.164Z,37.20
2022-12-26T08:28:42.971Z,34.27
2022-12-26T08:31:12.749Z,39.73
2022-12-26T08:33:40.818Z,35.67
2022-12-26T08:36:11.017Z,32.40
2022-12-26T08:38:40.701Z,35.07
2022-12-26T08:41:08.709Z,32.10
2022-12-26T08:44:16.471Z,32.60
2022-12-26T08:46:24.536Z,29.57
2022-12-26T08:48:52.794Z,33.07
2022-12-26T08:51:23.199Z,29.87
2022-12-26T08:53:52.406Z,30.40
2022-12-26T08:56:23.308Z,24.47
2022-12-26T08:58:51.477Z,24.07
2022-12-26T09:01:25.546Z,25.67
2022-12-26T09:03:59.324Z,23.50
2022-12-26T09:06:27.247Z,23.70
2022-12-26T09:08:55.062Z,31.53
2022-12-26T09:11:26.992Z,34.90
2022-12-26T09:13:59.055Z,27.33
2022-12-26T09:16:45.701Z,25.70
2022-12-26T09:19:18.106Z,21.87
2022-12-26T09:21:47.100Z,23.03
2022-12-26T09:24:19.038Z,23.63
2022-12-26T09:26:46.737Z,22.00
2022-12-26T09:29:14.710Z,23.30
2022-12-26T09:31:42.673Z,24.73
2022-12-26T09:34:10.387Z,27.37
2022-12-26T09:36:39.468Z,18.57
2022-12-26T09:39:08.271Z,20.37
2022-12-26T09:42:12.007Z,21.33
2022-12-26T09:45:18.456Z,22.57
2022-12-26T09:48:03.438Z,21.13
2022-12-26T09:50:43.019Z,21.30
2022-12-26T09:53:35.309Z,19.57
2022-12-26T09:56:23.693Z,17.57
2022-12-26T09:59:08.146Z,20.30
2022-12-26T10:01:37.289Z,18.70
2022-12-26T10:04:29.710Z,19.97
2022-12-26T10:07:38.728Z,20.43
2022-12-26T10:10:18.522Z,20.63
2022-12-26T10:13:15.694Z,17.60
2022-12-26T10:15:50.628Z,18.60
2022-12-26T10:18:23.889Z,19.13
2022-12-26T10:21:06.744Z,13.93
2022-12-26T10:23:39.971Z,11.70
2022-12-26T10:26:14.136Z,15.00
2022-12-26T10:29:03.188Z,14.50
2022-12-26T10:31:35.349Z,12.20
2022-12-26T10:34:09.479Z,10.30
2022-12-26T10:36:50.970Z,11.47
2022-12-26T10:39:40.049Z,9.40
2022-12-26T10:42:36.260Z,7.97
2022-12-26T10:45:34.585Z,7.80
2022-12-26T10:48:02.472Z,6.97
2022-12-26T10:50:33.559Z,10.37
2022-12-26T10:53:04.680Z,9.27
2022-12-26T10:55:35.044Z,7.90
2022-12-26T10:58:19.087Z,7.57
2022-12-26T11:00:47.269Z,7.63
2022-12-26T11:03:17.410Z,8.33
2022-12-26T11:06:10.656Z,9.73
2022-12-26T11:08:43.667Z,8.90
2022-12-26T11:11:25.398Z,7.53
2022-12-26T11:14:03.910Z,6.27
2022-12-26T11:16:38.476Z,14.00
2022-12-26T11:19:07.627Z,7.77
2022-12-26T11:21:35.902Z,8.20
2022-12-26T11:24:09.882Z,8.60
2022-12-26T11:26:39.057Z,11.07
2022-12-26T11:29:12.960Z,6.20
2022-12-26T11:32:01.132Z,7.43
2022-12-26T11:34:38.769Z,8.63
2022-12-26T11:37:21.127Z,10.03
2022-12-26T11:39:53.134Z,8.87
2022-12-26T11:42:24.539Z,6.73
2022-12-26T11:44:56.059Z,6.77
2022-12-26T11:47:27.585Z,12.03
2022-12-26T11:49:55.197Z,9.80
2022-12-26T11:52:44.167Z,9.97
2022-12-26T11:55:29.609Z,10.77
2022-12-26T11:58:20.676Z,11.10
2022-12-26T12:00:51.249Z,13.27
2022-12-26T12:03:49.226Z,6.50
2022-12-26T12:06:36.094Z,8.17
2022-12-26T12:09:05.960Z,7.57
2022-12-26T12:12:03.838Z,7.73
2022-12-26T12:14:37.872Z,5.03
2022-12-26T12:17:22.100Z,6.63
2022-12-26T12:19:59.818Z,6.37
2022-12-26T12:22:56.517Z,6.40
2022-12-26T12:25:43.017Z,8.87
2022-12-26T12:29:07.309Z,7.17
2022-12-26T12:31:44.224Z,17.37
2022-12-26T12:34:35.190Z,6.80
2022-12-26T12:37:33.422Z,3.93
2022-12-26T12:40:22.304Z,5.77
2022-12-26T12:43:42.203Z,5.63
2022-12-26T12:46:21.880Z,4.97
2022-12-26T12:49:14.468Z,6.50
2022-12-26T12:51:51.031Z,4.77
2022-12-26T12:54:41.651Z,5.90
2022-12-26T12:57:12.245Z,5.70
2022-12-26T12:59:48.053Z,11.57
2022-12-26T13:02:22.688Z,7.33
2022-12-26T13:04:59.667Z,7.37
2022-12-26T13:07:46.891Z,16.27
2022-12-26T13:10:35.177Z,7.67
2022-12-26T13:13:18.773Z,7.23
2022-12-26T13:15:51.721Z,6.37
2022-12-26T13:18:26.586Z,6.53
2022-12-26T13:21:00.373Z,7.53
2022-12-26T13:23:51.914Z,10.10
2022-12-26T13:26:31.331Z,6.87
2022-12-26T13:29:37.017Z,7.50
2022-12-26T13:32:15.224Z,8.37
2022-12-26T13:34:47.527Z,6.17
2022-12-26T13:37:40.233Z,7.27
2022-12-26T13:40:13.820Z,5.77
2022-12-26T13:43:18.786Z,7.10
2022-12-26T13:45:55.492Z,7.23
2022-12-26T13:48:26.321Z,7.10
2022-12-26T13:50:57.820Z,7.57
2022-12-26T13:53:25.380Z,6.57
2022-12-26T13:55:55.278Z,6.90
2022-12-26T13:58:47.725Z,7.17
2022-12-26T14:01:55.077Z,6.00
2022-12-26T14:04:31.950Z,7.83
2022-12-26T14:07:20.595Z,7.33
2022-12-26T14:10:06.730Z,7.97
2022-12-26T14:13:03.909Z,8.53
2022-12-26T14:16:02.179Z,7.80
2022-12-26T14:18:54.332Z,7.80
2022-12-26T14:21:53.347Z,9.67
2022-12-26T14:24:23.543Z,6.47
2022-12-26T14:27:10.180Z,9.70
2022-12-26T14:30:17.429Z,9.27
2022-12-26T14:33:22.913Z,9.90
2022-12-26T14:36:21.198Z,13.00
2022-12-26T14:38:58.460Z,12.20
2022-12-26T14:41:44.462Z,7.00
2022-12-26T14:44:38.114Z,8.23
2022-12-26T14:47:06.186Z,7.67
2022-12-26T14:49:35.908Z,8.13
2022-12-26T14:52:21.968Z,6.10
2022-12-26T14:54:51.538Z,9.30
2022-12-26T14:57:37.976Z,7.63
2022-12-26T15:00:29.921Z,8.07
2022-12-26T15:03:01.706Z,8.13
2022-12-26T15:05:37.876Z,8.90
2022-12-26T15:08:52.628Z,8.90
2022-12-26T15:12:01.870Z,11.00
2022-12-26T15:14:44.764Z,9.13
2022-12-26T15:17:41.800Z,9.07
2022-12-26T15:20:24.475Z,6.50
2022-12-26T15:23:13.674Z,9.47
2022-12-26T15:25:58.789Z,13.50
2022-12-26T15:28:53.879Z,8.90
2022-12-26T15:31:42.993Z,15.37
2022-12-26T15:34:33.928Z,9.30
2022-12-26T15:37:07.314Z,10.10
2022-12-26T15:40:14.820Z,7.73
2022-12-26T15:43:13.217Z,9.87
2022-12-26T15:45:55.530Z,8.00
2022-12-26T15:48:41.699Z,5.93
2022-12-26T15:51:17.984Z,9.70
2022-12-26T15:54:12.368Z,8.63
2022-12-26T15:57:01.535Z,10.63
2022-12-26T15:59:46.828Z,9.77
2022-12-26T16:02:33.141Z,8.30
2022-12-26T16:05:12.986Z,9.57
2022-12-26T16:08:02.591Z,8.73
2022-12-26T16:10:33.295Z,10.20
2022-12-26T16:13:23.246Z,9.13
2022-12-26T16:15:58.901Z,7.00
2022-12-26T16:18:29.061Z,7.87
2022-12-26T16:21:21.616Z,6.97
2022-12-26T16:23:52.474Z,10.17
2022-12-26T16:26:29.112Z,9.90
2022-12-26T16:29:01.385Z,7.43
2022-12-26T16:31:31.261Z,8.73
2022-12-26T16:34:00.499Z,7.67
2022-12-26T16:36:32.550Z,9.33
2022-12-26T16:39:00.342Z,7.63
2022-12-26T16:41:30.822Z,6.57
2022-12-26T16:44:30.685Z,6.47
2022-12-26T16:47:02.919Z,7.37
2022-12-26T16:49:32.606Z,9.57
2022-12-26T16:52:00.570Z,5.50
2022-12-26T16:54:42.542Z,7.50
2022-12-26T16:57:28.699Z,5.73
2022-12-26T16:59:59.350Z,7.23
2022-12-26T17:02:30.903Z,5.47
2022-12-26T17:05:26.087Z,5.90
2022-12-26T17:07:55.952Z,5.73
2022-12-26T17:10:31.046Z,5.03
2022-12-26T17:13:03.172Z,7.50
2022-12-26T17:15:37.687Z,5.23
2022-12-26T17:18:29.693Z,6.57
2022-12-26T17:21:35.789Z,8.13
2022-12-26T17:24:02.967Z,13.50
2022-12-26T17:26:31.441Z,17.83
2022-12-26T17:28:58.710Z,11.33
2022-12-26T17:31:29.224Z,13.47
2022-12-26T17:33:57.861Z,12.90
2022-12-26T17:37:16.391Z,19.03
2022-12-26T17:39:26.967Z,20.40
2022-12-26T17:41:58.049Z,11.63
2022-12-26T17:44:34.925Z,8.93
2022-12-26T17:47:11.680Z,13.27
2022-12-26T17:49:38.964Z,14.53
2022-12-26T17:52:07.004Z,15.97
2022-12-26T17:54:34.492Z,12.17
2022-12-26T17:57:02.269Z,9.37
2022-12-26T17:59:29.680Z,12.80
2022-12-26T18:01:57.563Z,8.10
2022-12-26T18:04:25.307Z,6.97
2022-12-26T18:06:53.382Z,8.23
2022-12-26T18:09:26.768Z,9.73
2022-12-26T18:11:55.347Z,8.37
2022-12-26T18:14:22.950Z,9.17
2022-12-26T18:16:52.173Z,8.30
2022-12-26T18:19:20.350Z,9.17
2022-12-26T18:21:48.127Z,10.00
2022-12-26T18:24:15.458Z,13.37
2022-12-26T18:26:43.712Z,13.57
2022-12-26T18:29:11.691Z,23.67
2022-12-26T18:31:39.857Z,12.97
2022-12-26T18:34:07.793Z,10.07
2022-12-26T18:36:38.916Z,10.63
2022-12-26T18:39:07.206Z,8.07
2022-12-26T18:41:36.157Z,8.57
2022-12-26T18:44:03.409Z,9.47
2022-12-26T18:46:31.014Z,7.97
2022-12-26T18:48:58.607Z,8.17
2022-12-26T18:51:28.283Z,10.90
2022-12-26T18:53:55.598Z,6.73
2022-12-26T18:56:23.753Z,6.77
2022-12-26T18:58:57.594Z,6.53
2022-12-26T19:01:26.622Z,5.10
2022-12-26T19:03:55.211Z,5.87
2022-12-26T19:06:27.597Z,7.63
2022-12-26T19:08:56.014Z,6.80
2022-12-26T19:11:23.649Z,8.27
2022-12-26T19:13:51.393Z,8.30
2022-12-26T19:16:19.370Z,12.37
2022-12-26T19:18:47.208Z,8.50
2022-12-26T19:21:16.130Z,7.63
2022-12-26T19:23:47.010Z,9.43
2022-12-26T19:26:17.119Z,10.67
2022-12-26T19:28:44.896Z,10.97
2022-12-26T19:31:15.103Z,12.80
2022-12-26T19:33:43.303Z,11.30
2022-12-26T19:36:12.072Z,16.27
2022-12-26T19:38:40.903Z,33.80
2022-12-26T19:41:12.189Z,20.60
2022-12-26T19:43:40.689Z,25.10
2022-12-26T19:46:11.639Z,28.40
2022-12-26T19:48:39.662Z,12.80
2022-12-26T19:51:10.398Z,14.80
2022-12-26T19:53:38.839Z,14.27
2022-12-26T19:56:20.052Z,14.00
2022-12-26T19:58:51.841Z,12.97
2022-12-26T20:01:26.846Z,10.90
2022-12-26T20:03:57.154Z,12.20
2022-12-26T20:06:26.964Z,12.50
2022-12-26T20:08:58.047Z,14.77
2022-12-26T20:11:30.177Z,12.43
2022-12-26T20:13:59.547Z,12.70
2022-12-26T20:19:15.660Z,14.40
2022-12-26T20:21:43.366Z,17.30
2022-12-26T20:24:12.265Z,11.00
2022-12-26T20:26:41.807Z,13.57
2022-12-26T20:29:09.469Z,15.03
2022-12-26T20:31:39.395Z,15.17
2022-12-26T20:34:07.757Z,12.57
2022-12-26T20:36:37.701Z,12.00
2022-12-26T20:39:08.898Z,12.70
2022-12-26T20:41:37.331Z,13.40
2022-12-26T20:44:05.369Z,9.30
2022-12-26T20:46:35.409Z,10.07
2022-12-26T20:49:05.143Z,10.90
2022-12-26T20:51:37.852Z,9.63
2022-12-26T20:54:07.887Z,10.27
2022-12-26T20:56:37.516Z,8.37
2022-12-26T20:59:06.255Z,9.70
2022-12-26T21:01:35.448Z,9.67
2022-12-26T21:04:04.474Z,7.50
2022-12-26T21:06:36.760Z,8.63
2022-12-26T21:09:06.974Z,9.27
2022-12-26T21:11:42.144Z,11.57
2022-12-26T21:14:16.712Z,14.13
2022-12-26T21:16:56.240Z,11.57
2022-12-26T21:19:25.792Z,13.53
2022-12-26T21:21:55.442Z,12.17
2022-12-26T21:24:28.225Z,12.60
2022-12-26T21:26:57.313Z,8.73
2022-12-26T21:29:28.113Z,20.10
2022-12-26T21:31:56.595Z,19.33
2022-12-26T21:34:26.901Z,11.73
2022-12-26T21:37:14.228Z,15.37
2022-12-26T21:39:43.083Z,15.30
2022-12-26T21:42:11.530Z,15.17
2022-12-26T21:44:39.901Z,12.80
2022-12-26T21:47:10.347Z,16.77
2022-12-26T21:49:37.994Z,14.33
2022-12-26T21:52:07.162Z,17.77
2022-12-26T21:54:53.485Z,25.37
2022-12-26T21:57:22.625Z,15.83
2022-12-26T21:59:59.618Z,15.33
2022-12-26T22:02:49.142Z,13.03
2022-12-26T22:05:18.737Z,15.23
2022-12-26T22:07:46.820Z,16.70
2022-12-26T22:10:34.128Z,16.23
2022-12-26T22:13:02.339Z,13.47
2022-12-26T22:15:49.228Z,13.90
2022-12-26T22:18:18.257Z,14.33
2022-12-26T22:20:46.348Z,12.30
2022-12-26T22:23:14.936Z,11.53
2022-12-26T22:25:42.871Z,9.43
2022-12-26T22:28:11.152Z,13.77
2022-12-26T22:30:38.832Z,11.03
2022-12-26T22:33:06.752Z,8.87
2022-12-26T22:35:34.405Z,8.50
2022-12-26T22:38:02.632Z,9.17
2022-12-26T22:40:30.803Z,10.27
2022-12-26T22:42:59.214Z,19.57
2022-12-26T22:45:26.978Z,22.50
2022-12-26T22:47:55.418Z,31.90
2022-12-26T22:50:22.884Z,21.47
2022-12-26T22:52:52.167Z,16.40
2022-12-26T22:55:19.903Z,18.10
2022-12-26T22:57:51.171Z,18.73
2022-12-26T23:00:20.483Z,17.83
2022-12-26T23:02:50.421Z,16.47
2022-12-26T23:05:18.773Z,15.77
2022-12-26T23:07:46.758Z,9.83
2022-12-26T23:10:22.552Z,13.10
2022-12-26T23:12:51.300Z,13.70
2022-12-26T23:15:21.911Z,7.83
2022-12-26T23:18:16.384Z,9.93
2022-12-26T23:21:02.461Z,13.10
2022-12-26T23:23:30.466Z,24.20
2022-12-26T23:26:01.294Z,9.67
2022-12-26T23:28:48.244Z,22.03
2022-12-26T23:31:16.522Z,8.40
2022-12-26T23:33:44.546Z,9.20
2022-12-26T23:36:12.277Z,21.83
2022-12-26T23:38:40.510Z,13.70
2022-12-26T23:41:08.224Z,23.90
2022-12-26T23:43:36.084Z,38.47
2022-12-26T23:46:09.927Z,32.17
2022-12-26T23:48:38.067Z,34.50
2022-12-26T23:51:07.210Z,19.23
2022-12-26T23:53:35.977Z,15.27
2022-12-26T23:56:03.692Z,9.57
2022-12-26T23:58:31.611Z,8.47
